sensor_id;sensor_type;location;lat;lon;timestamp;P1;durP1;ratioP1;P2;durP2;ratioP2
14890;SDS011;7537;48.014;11.590;2023-05-10T00:02:50;1.10;;;0.94;;
14890;SDS011;7537;48.014;11.590;2023-05-10T00:08:17;1.14;;;1.26;;
14890;SDS011;7537;48.014;11.590;2023-05-10T00:13:45;1.25;;;1.18;;
14890;SDS011;7537;48.014;11.590;2023-05-10T00:19:12;2.19;;;0.89;;
14890;SDS011;7537;48.014;11.590;2023-05-10T00:24:40;0.77;;;0.85;;
14890;SDS011;7537;48.014;11.590;2023-05-10T00:30:08;0.59;;;0.67;;
14890;SDS011;7537;48.014;11.590;2023-05-10T00:35:37;1.03;;;1.08;;
14890;SDS011;7537;48.014;11.590;2023-05-10T00:41:04;0.71;;;0.81;;
14890;SDS011;7537;48.014;11.590;2023-05-10T00:46:32;0.83;;;0.93;;
14890;SDS011;7537;48.014;11.590;2023-05-10T00:52:00;1.06;;;1.19;;
14890;SDS011;7537;48.014;11.590;2023-05-10T00:57:27;0.79;;;0.91;;
14890;SDS011;7537;48.014;11.590;2023-05-10T01:02:58;1.00;;;0.90;;
14890;SDS011;7537;48.014;11.590;2023-05-10T01:08:30;0.59;;;0.67;;
14890;SDS011;7537;48.014;11.590;2023-05-10T01:13:58;1.32;;;1.02;;
14890;SDS011;7537;48.014;11.590;2023-05-10T01:19:26;0.76;;;0.83;;
14890;SDS011;7537;48.014;11.590;2023-05-10T01:36:40;0.60;;;0.67;;
14890;SDS011;7537;48.014;11.590;2023-05-10T01:42:14;0.97;;;0.82;;
14890;SDS011;7537;48.014;11.590;2023-05-10T01:47:42;1.11;;;0.95;;
14890;SDS011;7537;48.014;11.590;2023-05-10T01:53:11;0.69;;;0.64;;
14890;SDS011;7537;48.014;11.590;2023-05-10T01:58:39;0.75;;;0.84;;
14890;SDS011;7537;48.014;11.590;2023-05-10T02:04:11;0.61;;;0.69;;
14890;SDS011;7537;48.014;11.590;2023-05-10T02:09:41;0.75;;;0.80;;
14890;SDS011;7537;48.014;11.590;2023-05-10T02:15:12;0.49;;;0.55;;
14890;SDS011;7537;48.014;11.590;2023-05-10T02:20:59;0.50;;;0.56;;
14890;SDS011;7537;48.014;11.590;2023-05-10T02:26:27;0.87;;;0.84;;
14890;SDS011;7537;48.014;11.590;2023-05-10T02:31:55;2.40;;;0.92;;
14890;SDS011;7537;48.014;11.590;2023-05-10T02:37:24;1.76;;;0.46;;
14890;SDS011;7537;48.014;11.590;2023-05-10T02:42:52;0.87;;;0.66;;
14890;SDS011;7537;48.014;11.590;2023-05-10T02:48:24;1.54;;;0.61;;
14890;SDS011;7537;48.014;11.590;2023-05-10T02:53:51;1.02;;;0.41;;
14890;SDS011;7537;48.014;11.590;2023-05-10T02:59:20;0.56;;;0.62;;
14890;SDS011;7537;48.014;11.590;2023-05-10T03:04:51;0.32;;;0.36;;
14890;SDS011;7537;48.014;11.590;2023-05-10T03:10:19;0.46;;;0.48;;
14890;SDS011;7537;48.014;11.590;2023-05-10T03:15:50;0.26;;;0.29;;
14890;SDS011;7537;48.014;11.590;2023-05-10T03:21:22;0.31;;;0.34;;
14890;SDS011;7537;48.014;11.590;2023-05-10T03:26:54;2.16;;;0.62;;
14890;SDS011;7537;48.014;11.590;2023-05-10T03:32:23;0.59;;;0.60;;
14890;SDS011;7537;48.014;11.590;2023-05-10T03:37:50;1.46;;;0.62;;
14890;SDS011;7537;48.014;11.590;2023-05-10T03:43:18;0.69;;;0.62;;
14890;SDS011;7537;48.014;11.590;2023-05-10T03:48:45;0.54;;;0.44;;
14890;SDS011;7537;48.014;11.590;2023-05-10T03:54:14;2.12;;;0.65;;
14890;SDS011;7537;48.014;11.590;2023-05-10T03:59:42;0.40;;;0.42;;
14890;SDS011;7537;48.014;11.590;2023-05-10T04:05:13;0.45;;;0.41;;
14890;SDS011;7537;48.014;11.590;2023-05-10T04:10:40;0.24;;;0.27;;
14890;SDS011;7537;48.014;11.590;2023-05-10T04:16:08;0.48;;;0.38;;
14890;SDS011;7537;48.014;11.590;2023-05-10T04:21:37;0.31;;;0.34;;
14890;SDS011;7537;48.014;11.590;2023-05-10T04:27:06;1.76;;;0.49;;
14890;SDS011;7537;48.014;11.590;2023-05-10T04:32:33;0.84;;;0.74;;
14890;SDS011;7537;48.014;11.590;2023-05-10T04:38:00;0.31;;;0.31;;
14890;SDS011;7537;48.014;11.590;2023-05-10T04:43:28;0.23;;;0.27;;
14890;SDS011;7537;48.014;11.590;2023-05-10T04:48:55;0.32;;;0.23;;
14890;SDS011;7537;48.014;11.590;2023-05-10T04:54:23;1.83;;;0.33;;
14890;SDS011;7537;48.014;11.590;2023-05-10T04:59:52;0.30;;;0.33;;
14890;SDS011;7537;48.014;11.590;2023-05-10T05:05:23;0.56;;;0.21;;
14890;SDS011;7537;48.014;11.590;2023-05-10T05:10:57;0.39;;;0.19;;
14890;SDS011;7537;48.014;11.590;2023-05-10T05:16:24;0.33;;;0.13;;
14890;SDS011;7537;48.014;11.590;2023-05-10T05:21:52;0.29;;;0.30;;
14890;SDS011;7537;48.014;11.590;2023-05-10T05:27:19;0.43;;;0.31;;
14890;SDS011;7537;48.014;11.590;2023-05-10T05:32:48;0.64;;;0.50;;
14890;SDS011;7537;48.014;11.590;2023-05-10T05:38:16;0.46;;;0.23;;
14890;SDS011;7537;48.014;11.590;2023-05-10T05:43:43;0.37;;;0.37;;
14890;SDS011;7537;48.014;11.590;2023-05-10T05:49:11;0.29;;;0.31;;
14890;SDS011;7537;48.014;11.590;2023-05-10T05:54:38;1.06;;;0.57;;
14890;SDS011;7537;48.014;11.590;2023-05-10T06:00:07;0.69;;;0.24;;
14890;SDS011;7537;48.014;11.590;2023-05-10T06:05:41;0.54;;;0.58;;
14890;SDS011;7537;48.014;11.590;2023-05-10T06:11:09;0.27;;;0.29;;
14890;SDS011;7537;48.014;11.590;2023-05-10T06:16:37;0.32;;;0.34;;
14890;SDS011;7537;48.014;11.590;2023-05-10T06:22:04;2.93;;;0.73;;
14890;SDS011;7537;48.014;11.590;2023-05-10T06:27:32;2.03;;;0.43;;
14890;SDS011;7537;48.014;11.590;2023-05-10T06:32:59;2.04;;;0.85;;
14890;SDS011;7537;48.014;11.590;2023-05-10T06:38:28;0.58;;;0.49;;
14890;SDS011;7537;48.014;11.590;2023-05-10T06:43:57;1.03;;;0.61;;
14890;SDS011;7537;48.014;11.590;2023-05-10T06:49:24;0.52;;;0.58;;
14890;SDS011;7537;48.014;11.590;2023-05-10T06:54:51;0.63;;;0.73;;
14890;SDS011;7537;48.014;11.590;2023-05-10T07:00:20;2.10;;;0.86;;
14890;SDS011;7537;48.014;11.590;2023-05-10T07:05:51;1.27;;;0.76;;
14890;SDS011;7537;48.014;11.590;2023-05-10T07:11:24;1.19;;;0.82;;
14890;SDS011;7537;48.014;11.590;2023-05-10T07:16:52;3.92;;;1.14;;
14890;SDS011;7537;48.014;11.590;2023-05-10T07:22:19;0.89;;;0.84;;
14890;SDS011;7537;48.014;11.590;2023-05-10T07:27:47;0.77;;;0.84;;
14890;SDS011;7537;48.014;11.590;2023-05-10T07:33:14;0.76;;;0.84;;
14890;SDS011;7537;48.014;11.590;2023-05-10T07:38:42;1.18;;;0.72;;
14890;SDS011;7537;48.014;11.590;2023-05-10T07:44:11;4.94;;;0.75;;
14890;SDS011;7537;48.014;11.590;2023-05-10T07:49:38;3.37;;;0.97;;
14890;SDS011;7537;48.014;11.590;2023-05-10T07:55:07;0.99;;;1.06;;
14890;SDS011;7537;48.014;11.590;2023-05-10T08:00:36;0.72;;;0.69;;
14890;SDS011;7537;48.014;11.590;2023-05-10T08:06:07;3.98;;;1.12;;
14890;SDS011;7537;48.014;11.590;2023-05-10T08:11:34;0.90;;;0.87;;
14890;SDS011;7537;48.014;11.590;2023-05-10T08:17:03;0.74;;;0.83;;
14890;SDS011;7537;48.014;11.590;2023-05-10T08:22:31;0.66;;;0.75;;
14890;SDS011;7537;48.014;11.590;2023-05-10T08:27:59;0.72;;;0.67;;
14890;SDS011;7537;48.014;11.590;2023-05-10T08:33:26;0.64;;;0.70;;
14890;SDS011;7537;48.014;11.590;2023-05-10T08:38:54;1.17;;;0.55;;
14890;SDS011;7537;48.014;11.590;2023-05-10T08:44:21;0.67;;;0.66;;
14890;SDS011;7537;48.014;11.590;2023-05-10T08:49:50;0.70;;;0.73;;
14890;SDS011;7537;48.014;11.590;2023-05-10T08:55:19;3.47;;;1.53;;
14890;SDS011;7537;48.014;11.590;2023-05-10T09:00:48;3.37;;;1.26;;
14890;SDS011;7537;48.014;11.590;2023-05-10T09:06:19;5.98;;;1.09;;
14890;SDS011;7537;48.014;11.590;2023-05-10T09:11:51;1.22;;;0.70;;
14890;SDS011;7537;48.014;11.590;2023-05-10T09:17:18;0.63;;;0.54;;
14890;SDS011;7537;48.014;11.590;2023-05-10T09:22:48;1.14;;;0.51;;
14890;SDS011;7537;48.014;11.590;2023-05-10T09:28:15;2.44;;;0.48;;
14890;SDS011;7537;48.014;11.590;2023-05-10T09:33:44;1.51;;;0.56;;
14890;SDS011;7537;48.014;11.590;2023-05-10T09:39:12;0.56;;;0.37;;
14890;SDS011;7537;48.014;11.590;2023-05-10T09:44:39;0.41;;;0.38;;
14890;SDS011;7537;48.014;11.590;2023-05-10T09:50:09;0.45;;;0.46;;
14890;SDS011;7537;48.014;11.590;2023-05-10T09:55:40;0.99;;;0.56;;
14890;SDS011;7537;48.014;11.590;2023-05-10T10:01:11;0.56;;;0.53;;
14890;SDS011;7537;48.014;11.590;2023-05-10T10:06:42;1.62;;;0.73;;
14890;SDS011;7537;48.014;11.590;2023-05-10T10:12:10;0.52;;;0.59;;
14890;SDS011;7537;48.014;11.590;2023-05-10T10:17:37;0.67;;;0.53;;
14890;SDS011;7537;48.014;11.590;2023-05-10T10:23:05;0.35;;;0.39;;
14890;SDS011;7537;48.014;11.590;2023-05-10T10:28:35;0.49;;;0.44;;
14890;SDS011;7537;48.014;11.590;2023-05-10T10:34:08;0.59;;;0.63;;
14890;SDS011;7537;48.014;11.590;2023-05-10T10:39:36;0.46;;;0.52;;
14890;SDS011;7537;48.014;11.590;2023-05-10T10:45:12;0.52;;;0.32;;
14890;SDS011;7537;48.014;11.590;2023-05-10T10:50:45;0.37;;;0.39;;
14890;SDS011;7537;48.014;11.590;2023-05-10T10:56:13;0.60;;;0.66;;
14890;SDS011;7537;48.014;11.590;2023-05-10T11:01:42;2.19;;;0.82;;
14890;SDS011;7537;48.014;11.590;2023-05-10T11:07:18;0.34;;;0.40;;
14890;SDS011;7537;48.014;11.590;2023-05-10T11:12:52;3.64;;;0.59;;
14890;SDS011;7537;48.014;11.590;2023-05-10T11:18:20;3.46;;;0.81;;
14890;SDS011;7537;48.014;11.590;2023-05-10T11:23:51;1.06;;;0.73;;
14890;SDS011;7537;48.014;11.590;2023-05-10T11:29:18;1.16;;;0.91;;
14890;SDS011;7537;48.014;11.590;2023-05-10T11:34:47;1.04;;;1.07;;
14890;SDS011;7537;48.014;11.590;2023-05-10T11:40:15;0.79;;;0.70;;
14890;SDS011;7537;48.014;11.590;2023-05-10T11:45:43;0.69;;;0.61;;
14890;SDS011;7537;48.014;11.590;2023-05-10T11:51:12;3.44;;;0.42;;
14890;SDS011;7537;48.014;11.590;2023-05-10T11:56:40;2.86;;;0.52;;
14890;SDS011;7537;48.014;11.590;2023-05-10T12:02:07;1.51;;;0.60;;
14890;SDS011;7537;48.014;11.590;2023-05-10T12:07:40;1.56;;;0.98;;
14890;SDS011;7537;48.014;11.590;2023-05-10T12:13:11;2.02;;;0.95;;
14890;SDS011;7537;48.014;11.590;2023-05-10T12:18:39;1.90;;;1.26;;
14890;SDS011;7537;48.014;11.590;2023-05-10T12:24:07;2.36;;;0.64;;
14890;SDS011;7537;48.014;11.590;2023-05-10T12:29:34;1.23;;;0.57;;
14890;SDS011;7537;48.014;11.590;2023-05-10T12:35:04;1.27;;;0.82;;
14890;SDS011;7537;48.014;11.590;2023-05-10T12:40:33;1.50;;;1.23;;
14890;SDS011;7537;48.014;11.590;2023-05-10T12:46:05;4.26;;;1.06;;
14890;SDS011;7537;48.014;11.590;2023-05-10T12:51:32;2.42;;;0.85;;
14890;SDS011;7537;48.014;11.590;2023-05-10T12:57:03;1.36;;;0.69;;
14890;SDS011;7537;48.014;11.590;2023-05-10T13:02:30;0.49;;;0.42;;
14890;SDS011;7537;48.014;11.590;2023-05-10T13:08:02;0.49;;;0.57;;
14890;SDS011;7537;48.014;11.590;2023-05-10T13:13:31;0.68;;;0.73;;
14890;SDS011;7537;48.014;11.590;2023-05-10T13:18:59;0.82;;;0.68;;
14890;SDS011;7537;48.014;11.590;2023-05-10T13:24:26;1.57;;;0.86;;
14890;SDS011;7537;48.014;11.590;2023-05-10T13:29:54;0.76;;;0.66;;
14890;SDS011;7537;48.014;11.590;2023-05-10T13:35:22;1.57;;;0.44;;
14890;SDS011;7537;48.014;11.590;2023-05-10T13:40:49;2.25;;;0.49;;
14890;SDS011;7537;48.014;11.590;2023-05-10T13:46:18;1.64;;;0.80;;
14890;SDS011;7537;48.014;11.590;2023-05-10T13:51:46;0.87;;;0.89;;
14890;SDS011;7537;48.014;11.590;2023-05-10T13:57:13;0.87;;;0.98;;
14890;SDS011;7537;48.014;11.590;2023-05-10T14:02:41;2.07;;;0.70;;
14890;SDS011;7537;48.014;11.590;2023-05-10T14:08:12;1.10;;;0.74;;
14890;SDS011;7537;48.014;11.590;2023-05-10T14:13:39;0.56;;;0.57;;
14890;SDS011;7537;48.014;11.590;2023-05-10T14:19:08;0.62;;;0.66;;
14890;SDS011;7537;48.014;11.590;2023-05-10T14:24:37;2.51;;;0.72;;
14890;SDS011;7537;48.014;11.590;2023-05-10T14:30:06;1.34;;;0.44;;
14890;SDS011;7537;48.014;11.590;2023-05-10T14:35:34;3.41;;;0.61;;
14890;SDS011;7537;48.014;11.590;2023-05-10T14:41:01;0.56;;;0.61;;
14890;SDS011;7537;48.014;11.590;2023-05-10T14:46:29;0.30;;;0.33;;
14890;SDS011;7537;48.014;11.590;2023-05-10T14:51:57;2.24;;;0.62;;
14890;SDS011;7537;48.014;11.590;2023-05-10T14:57:26;5.59;;;0.74;;
14890;SDS011;7537;48.014;11.590;2023-05-10T15:02:54;0.51;;;0.52;;
14890;SDS011;7537;48.014;11.590;2023-05-10T15:08:25;1.22;;;0.71;;
14890;SDS011;7537;48.014;11.590;2023-05-10T15:13:52;1.27;;;0.52;;
14890;SDS011;7537;48.014;11.590;2023-05-10T15:19:20;0.85;;;0.84;;
14890;SDS011;7537;48.014;11.590;2023-05-10T15:24:49;0.55;;;0.56;;
14890;SDS011;7537;48.014;11.590;2023-05-10T15:30:16;3.58;;;0.61;;
14890;SDS011;7537;48.014;11.590;2023-05-10T15:35:44;1.35;;;0.93;;
14890;SDS011;7537;48.014;11.590;2023-05-10T15:41:31;2.04;;;0.98;;
14890;SDS011;7537;48.014;11.590;2023-05-10T15:46:59;2.35;;;0.71;;
14890;SDS011;7537;48.014;11.590;2023-05-10T15:52:26;2.83;;;0.59;;
14890;SDS011;7537;48.014;11.590;2023-05-10T15:57:55;0.83;;;0.91;;
14890;SDS011;7537;48.014;11.590;2023-05-10T16:03:23;1.09;;;0.91;;
14890;SDS011;7537;48.014;11.590;2023-05-10T16:08:54;1.41;;;1.18;;
14890;SDS011;7537;48.014;11.590;2023-05-10T16:14:21;0.88;;;0.98;;
14890;SDS011;7537;48.014;11.590;2023-05-10T16:19:49;0.71;;;0.78;;
14890;SDS011;7537;48.014;11.590;2023-05-10T16:25:16;0.65;;;0.70;;
14890;SDS011;7537;48.014;11.590;2023-05-10T16:30:45;2.61;;;0.95;;
14890;SDS011;7537;48.014;11.590;2023-05-10T16:36:12;2.69;;;1.44;;
14890;SDS011;7537;48.014;11.590;2023-05-10T16:41:40;3.64;;;0.89;;
14890;SDS011;7537;48.014;11.590;2023-05-10T16:47:08;2.00;;;1.03;;
14890;SDS011;7537;48.014;11.590;2023-05-10T16:52:35;0.62;;;0.71;;
14890;SDS011;7537;48.014;11.590;2023-05-10T16:58:04;0.79;;;0.83;;
14890;SDS011;7537;48.014;11.590;2023-05-10T17:03:33;0.92;;;1.02;;
14890;SDS011;7537;48.014;11.590;2023-05-10T17:09:03;0.89;;;0.96;;
14890;SDS011;7537;48.014;11.590;2023-05-10T17:14:32;1.08;;;0.77;;
14890;SDS011;7537;48.014;11.590;2023-05-10T17:20:01;0.50;;;0.56;;
14890;SDS011;7537;48.014;11.590;2023-05-10T17:25:35;2.59;;;1.09;;
14890;SDS011;7537;48.014;11.590;2023-05-10T17:31:03;1.05;;;0.72;;
14890;SDS011;7537;48.014;11.590;2023-05-10T17:36:33;2.43;;;1.12;;
14890;SDS011;7537;48.014;11.590;2023-05-10T17:42:01;1.18;;;0.99;;
14890;SDS011;7537;48.014;11.590;2023-05-10T17:47:30;0.92;;;0.77;;
14890;SDS011;7537;48.014;11.590;2023-05-10T17:52:57;1.72;;;1.40;;
14890;SDS011;7537;48.014;11.590;2023-05-10T17:58:25;1.19;;;0.99;;
14890;SDS011;7537;48.014;11.590;2023-05-10T18:03:52;1.42;;;1.13;;
14890;SDS011;7537;48.014;11.590;2023-05-10T18:09:25;0.78;;;0.81;;
14890;SDS011;7537;48.014;11.590;2023-05-10T18:14:52;0.91;;;0.89;;
14890;SDS011;7537;48.014;11.590;2023-05-10T18:20:20;3.15;;;2.53;;
14890;SDS011;7537;48.014;11.590;2023-05-10T18:25:50;0.66;;;0.80;;
14890;SDS011;7537;48.014;11.590;2023-05-10T18:31:23;1.22;;;0.71;;
14890;SDS011;7537;48.014;11.590;2023-05-10T18:37:11;1.61;;;1.25;;
14890;SDS011;7537;48.014;11.590;2023-05-10T18:42:38;2.28;;;0.92;;
14890;SDS011;7537;48.014;11.590;2023-05-10T18:48:06;1.44;;;1.05;;
14890;SDS011;7537;48.014;11.590;2023-05-10T18:53:34;1.49;;;1.52;;
14890;SDS011;7537;48.014;11.590;2023-05-10T18:59:02;2.41;;;1.48;;
14890;SDS011;7537;48.014;11.590;2023-05-10T19:04:30;1.65;;;1.48;;
14890;SDS011;7537;48.014;11.590;2023-05-10T19:10:02;6.32;;;1.51;;
14890;SDS011;7537;48.014;11.590;2023-05-10T19:15:30;1.28;;;1.41;;
14890;SDS011;7537;48.014;11.590;2023-05-10T19:20:57;3.40;;;1.69;;
14890;SDS011;7537;48.014;11.590;2023-05-10T19:26:25;1.53;;;1.62;;
14890;SDS011;7537;48.014;11.590;2023-05-10T19:31:54;1.56;;;1.32;;
14890;SDS011;7537;48.014;11.590;2023-05-10T19:37:23;1.68;;;1.72;;
14890;SDS011;7537;48.014;11.590;2023-05-10T19:42:50;1.99;;;1.92;;
14890;SDS011;7537;48.014;11.590;2023-05-10T19:48:18;1.47;;;1.52;;
14890;SDS011;7537;48.014;11.590;2023-05-10T19:53:46;1.67;;;1.78;;
14890;SDS011;7537;48.014;11.590;2023-05-10T19:59:13;2.12;;;1.86;;
14890;SDS011;7537;48.014;11.590;2023-05-10T20:04:41;2.85;;;1.63;;
14890;SDS011;7537;48.014;11.590;2023-05-10T20:10:13;1.69;;;1.77;;
14890;SDS011;7537;48.014;11.590;2023-05-10T20:15:41;2.77;;;1.71;;
14890;SDS011;7537;48.014;11.590;2023-05-10T20:21:09;1.52;;;1.62;;
14890;SDS011;7537;48.014;11.590;2023-05-10T20:26:37;3.47;;;2.16;;
14890;SDS011;7537;48.014;11.590;2023-05-10T20:32:05;1.58;;;1.33;;
14890;SDS011;7537;48.014;11.590;2023-05-10T20:37:32;1.18;;;1.28;;
14890;SDS011;7537;48.014;11.590;2023-05-10T20:43:02;1.39;;;1.44;;
14890;SDS011;7537;48.014;11.590;2023-05-10T20:48:29;1.66;;;1.73;;
14890;SDS011;7537;48.014;11.590;2023-05-10T20:53:57;2.63;;;1.55;;
14890;SDS011;7537;48.014;11.590;2023-05-10T20:59:24;1.89;;;1.54;;
14890;SDS011;7537;48.014;11.590;2023-05-10T21:04:52;1.81;;;1.87;;
14890;SDS011;7537;48.014;11.590;2023-05-10T21:10:23;1.85;;;1.28;;
14890;SDS011;7537;48.014;11.590;2023-05-10T21:15:53;1.33;;;1.33;;
14890;SDS011;7537;48.014;11.590;2023-05-10T21:21:21;1.69;;;1.05;;
14890;SDS011;7537;48.014;11.590;2023-05-10T21:26:48;2.92;;;1.27;;
14890;SDS011;7537;48.014;11.590;2023-05-10T21:32:16;1.65;;;1.33;;
14890;SDS011;7537;48.014;11.590;2023-05-10T21:37:43;1.09;;;1.14;;
14890;SDS011;7537;48.014;11.590;2023-05-10T21:43:11;0.81;;;0.92;;
14890;SDS011;7537;48.014;11.590;2023-05-10T21:48:40;1.19;;;0.92;;
14890;SDS011;7537;48.014;11.590;2023-05-10T21:54:07;1.01;;;0.92;;
14890;SDS011;7537;48.014;11.590;2023-05-10T21:59:35;1.03;;;1.06;;
14890;SDS011;7537;48.014;11.590;2023-05-10T22:05:02;1.24;;;1.02;;
14890;SDS011;7537;48.014;11.590;2023-05-10T22:10:33;1.38;;;1.27;;
14890;SDS011;7537;48.014;11.590;2023-05-10T22:16:01;1.02;;;0.89;;
14890;SDS011;7537;48.014;11.590;2023-05-10T22:21:30;1.39;;;1.49;;
14890;SDS011;7537;48.014;11.590;2023-05-10T22:26:57;1.91;;;1.19;;
14890;SDS011;7537;48.014;11.590;2023-05-10T22:32:25;0.73;;;0.77;;
14890;SDS011;7537;48.014;11.590;2023-05-10T22:37:52;1.03;;;0.74;;
14890;SDS011;7537;48.014;11.590;2023-05-10T22:43:20;1.21;;;1.09;;
14890;SDS011;7537;48.014;11.590;2023-05-10T22:48:48;1.03;;;1.07;;
14890;SDS011;7537;48.014;11.590;2023-05-10T22:54:20;2.49;;;1.09;;
14890;SDS011;7537;48.014;11.590;2023-05-10T22:59:48;0.85;;;0.95;;
14890;SDS011;7537;48.014;11.590;2023-05-10T23:05:16;0.92;;;1.02;;
14890;SDS011;7537;48.014;11.590;2023-05-10T23:10:47;1.77;;;1.28;;
14890;SDS011;7537;48.014;11.590;2023-05-10T23:16:14;1.30;;;1.22;;
14890;SDS011;7537;48.014;11.590;2023-05-10T23:21:42;1.28;;;1.11;;
14890;SDS011;7537;48.014;11.590;2023-05-10T23:27:09;1.11;;;1.07;;
14890;SDS011;7537;48.014;11.590;2023-05-10T23:32:38;1.80;;;1.12;;
14890;SDS011;7537;48.014;11.590;2023-05-10T23:38:05;1.06;;;1.03;;
14890;SDS011;7537;48.014;11.590;2023-05-10T23:43:33;0.92;;;1.01;;
14890;SDS011;7537;48.014;11.590;2023-05-10T23:49:00;4.03;;;1.57;;
14890;SDS011;7537;48.014;11.590;2023-05-10T23:54:28;1.34;;;1.23;;
14890;SDS011;7537;48.014;11.590;2023-05-10T23:59:55;1.36;;;0.97;;
